createdAt,value
2022-11-05T00:00:37.584Z,11.76
2022-11-05T00:03:23.645Z,11.79
2022-11-05T00:06:12.503Z,11.82
2022-11-05T00:08:59.956Z,11.83
2022-11-05T00:11:46.962Z,11.82
2022-11-05T00:14:33.111Z,11.86
2022-11-05T00:17:00.140Z,11.90
2022-11-05T00:19:27.242Z,11.87
2022-11-05T00:22:12.534Z,11.87
2022-11-05T00:25:09.126Z,11.85
2022-11-05T00:27:36.211Z,11.86
2022-11-05T00:30:06.247Z,11.95
2022-11-05T00:32:33.986Z,11.95
2022-11-05T00:35:01.069Z,11.93
2022-11-05T00:37:28.749Z,11.90
2022-11-05T00:39:55.756Z,11.92
2022-11-05T00:42:41.202Z,11.81
2022-11-05T00:45:08.866Z,11.76
2022-11-05T00:47:54.087Z,11.81
2022-11-05T00:50:22.436Z,11.80
2022-11-05T00:52:57.421Z,11.91
2022-11-05T00:55:34.649Z,11.78
2022-11-05T00:58:03.474Z,11.78
2022-11-05T01:00:31.649Z,11.75
2022-11-05T01:03:04.470Z,11.67
2022-11-05T01:05:33.110Z,11.70
2022-11-05T01:08:00.497Z,11.73
2022-11-05T01:10:28.258Z,11.78
2022-11-05T01:12:55.752Z,11.77
2022-11-05T01:15:23.158Z,11.73
2022-11-05T01:17:51.595Z,11.72
2022-11-05T01:20:18.753Z,11.67
2022-11-05T01:22:45.700Z,11.70
2022-11-05T01:25:12.729Z,11.73
2022-11-05T01:27:40.034Z,11.75
2022-11-05T01:30:09.059Z,11.70
2022-11-05T01:32:37.271Z,11.65
2022-11-05T01:35:09.276Z,11.63
2022-11-05T01:37:36.616Z,11.58
2022-11-05T01:40:04.108Z,11.60
2022-11-05T01:42:32.408Z,11.58
2022-11-05T01:45:21.403Z,11.58
2022-11-05T01:48:17.142Z,11.57
2022-11-05T01:50:58.402Z,11.59
2022-11-05T01:53:53.721Z,11.54
2022-11-05T01:56:26.834Z,11.63
2022-11-05T01:59:02.749Z,11.48
2022-11-05T02:01:30.040Z,11.37
2022-11-05T02:04:01.896Z,11.46
2022-11-05T02:06:30.392Z,11.36
2022-11-05T02:09:03.703Z,11.30
2022-11-05T02:11:30.992Z,11.24
2022-11-05T02:13:58.138Z,11.18
2022-11-05T02:16:47.907Z,11.13
2022-11-05T02:19:44.804Z,11.08
2022-11-05T02:22:57.142Z,10.98
2022-11-05T02:26:31.496Z,11.00
2022-11-05T02:29:39.012Z,10.98
2022-11-05T02:33:01.329Z,10.97
2022-11-05T02:36:11.050Z,10.92
2022-11-05T02:39:07.229Z,10.94
2022-11-05T02:41:47.084Z,11.01
2022-11-05T02:44:57.752Z,11.03
2022-11-05T02:50:35.383Z,11.04
2022-11-05T02:58:52.745Z,11.16
2022-11-05T03:01:20.487Z,11.19
2022-11-05T03:03:57.834Z,11.19
2022-11-05T03:10:05.633Z,11.19
2022-11-05T03:13:11.998Z,11.20
2022-11-05T03:15:57.061Z,11.21
2022-11-05T03:18:47.792Z,11.21
2022-11-05T03:21:24.162Z,11.11
2022-11-05T03:24:08.664Z,11.10
2022-11-05T03:26:54.934Z,11.08
2022-11-05T03:29:27.256Z,11.11
2022-11-05T03:31:57.852Z,11.12
2022-11-05T03:34:29.600Z,11.20
2022-11-05T03:36:58.250Z,11.17
2022-11-05T03:39:39.515Z,11.18
2022-11-05T03:42:07.858Z,11.12
2022-11-05T03:44:39.253Z,11.05
2022-11-05T03:47:14.277Z,11.04
2022-11-05T03:49:53.020Z,10.93
2022-11-05T03:52:24.179Z,10.90
2022-11-05T03:54:51.260Z,10.90
2022-11-05T03:57:32.765Z,10.84
2022-11-05T03:59:59.821Z,10.87
2022-11-05T04:02:27.685Z,10.91
2022-11-05T04:04:55.481Z,10.95
2022-11-05T04:07:41.259Z,11.01
2022-11-05T04:10:27.951Z,11.00
2022-11-05T04:13:13.768Z,10.95
2022-11-05T04:15:59.385Z,10.86
2022-11-05T04:18:26.717Z,10.81
2022-11-05T04:21:12.222Z,10.82
2022-11-05T04:23:57.650Z,10.85
2022-11-05T04:26:24.671Z,10.90
2022-11-05T04:29:10.751Z,10.91
2022-11-05T04:31:38.498Z,11.00
2022-11-05T04:34:05.638Z,11.02
2022-11-05T04:36:32.641Z,11.04
2022-11-05T04:38:59.590Z,11.04
2022-11-05T04:41:26.848Z,11.01
2022-11-05T04:43:53.906Z,11.01
2022-11-05T04:46:21.079Z,10.96
2022-11-05T04:48:48.093Z,10.91
2022-11-05T04:51:15.185Z,10.90
2022-11-05T04:53:42.296Z,10.92
2022-11-05T04:56:19.705Z,10.97
2022-11-05T04:58:46.888Z,11.01
2022-11-05T05:01:18.989Z,11.06
2022-11-05T05:03:50.464Z,11.12
2022-11-05T05:06:18.879Z,11.07
2022-11-05T05:08:50.444Z,11.00
2022-11-05T05:11:20.116Z,10.97
2022-11-05T05:13:47.861Z,10.97
2022-11-05T05:16:26.249Z,10.97
2022-11-05T05:18:54.895Z,10.98
2022-11-05T05:21:41.730Z,11.04
2022-11-05T05:24:13.776Z,11.10
2022-11-05T05:26:43.588Z,11.17
2022-11-05T05:29:12.160Z,11.19
2022-11-05T05:31:39.750Z,11.19
2022-11-05T05:34:07.897Z,11.19
2022-11-05T05:36:34.936Z,11.22
2022-11-05T05:39:04.766Z,11.26
2022-11-05T05:41:31.865Z,11.35
2022-11-05T05:43:58.924Z,11.42
2022-11-05T05:46:25.940Z,11.44
2022-11-05T05:48:52.961Z,11.38
2022-11-05T05:51:20.348Z,11.37
2022-11-05T05:53:47.468Z,11.42
2022-11-05T05:56:15.473Z,11.46
2022-11-05T05:58:42.710Z,11.48
2022-11-05T06:01:18.971Z,11.49
2022-11-05T06:03:47.704Z,11.53
2022-11-05T06:06:19.925Z,11.58
2022-11-05T06:08:47.653Z,11.59
2022-11-05T06:11:14.906Z,11.55
2022-11-05T06:13:41.894Z,11.53
2022-11-05T06:16:09.866Z,11.61
2022-11-05T06:18:37.291Z,11.71
2022-11-05T06:21:06.234Z,11.82
2022-11-05T06:23:34.868Z,11.86
2022-11-05T06:26:07.715Z,11.95
2022-11-05T06:28:35.640Z,12.00
2022-11-05T06:31:02.665Z,12.06
2022-11-05T06:33:29.686Z,12.14
2022-11-05T06:36:00.667Z,12.27
2022-11-05T06:38:29.426Z,12.36
2022-11-05T06:40:58.953Z,12.45
2022-11-05T06:43:26.809Z,12.49
2022-11-05T06:45:54.001Z,12.57
2022-11-05T06:48:21.009Z,12.71
2022-11-05T06:50:48.115Z,12.86
2022-11-05T06:53:15.269Z,13.03
2022-11-05T06:55:42.374Z,13.16
2022-11-05T06:58:09.301Z,13.31
2022-11-05T07:00:36.598Z,13.44
2022-11-05T07:03:08.360Z,13.57
2022-11-05T07:05:39.192Z,13.69
2022-11-05T07:08:06.706Z,13.78
2022-11-05T07:10:34.030Z,13.86
2022-11-05T07:13:05.131Z,13.97
2022-11-05T07:15:35.028Z,14.07
2022-11-05T07:18:02.451Z,14.17
2022-11-05T07:20:33.901Z,14.29
2022-11-05T07:23:06.740Z,14.44
2022-11-05T07:25:34.705Z,14.53
2022-11-05T07:28:03.325Z,14.61
2022-11-05T07:30:31.875Z,14.63
2022-11-05T07:32:59.122Z,14.61
2022-11-05T07:35:26.195Z,14.66
2022-11-05T07:37:54.791Z,14.79
2022-11-05T07:40:23.613Z,14.99
2022-11-05T07:42:56.017Z,15.23
2022-11-05T07:45:23.708Z,15.40
2022-11-05T07:47:53.232Z,15.53
2022-11-05T07:50:22.814Z,15.68
2022-11-05T07:52:50.555Z,15.78
2022-11-05T07:55:19.360Z,15.97
2022-11-05T07:57:51.144Z,16.11
2022-11-05T08:00:21.844Z,16.27
2022-11-05T08:03:09.326Z,16.46
2022-11-05T08:05:38.847Z,16.64
2022-11-05T08:08:08.366Z,16.71
2022-11-05T08:10:36.246Z,16.75
2022-11-05T08:13:04.200Z,16.79
2022-11-05T08:15:31.192Z,16.80
2022-11-05T08:18:04.147Z,16.86
2022-11-05T08:20:31.539Z,16.95
2022-11-05T08:22:58.677Z,17.03
2022-11-05T08:25:26.196Z,17.12
2022-11-05T08:28:01.453Z,17.20
2022-11-05T08:30:28.934Z,17.16
2022-11-05T08:33:01.095Z,17.22
2022-11-05T08:35:29.164Z,17.24
2022-11-05T08:38:00.895Z,17.25
2022-11-05T08:40:28.126Z,17.11
2022-11-05T08:42:58.381Z,17.09
2022-11-05T08:45:28.523Z,17.05
2022-11-05T08:48:10.500Z,17.01
2022-11-05T08:50:37.981Z,17.08
2022-11-05T08:53:06.248Z,17.20
2022-11-05T08:55:33.450Z,17.31
2022-11-05T08:58:02.806Z,17.39
2022-11-05T09:00:32.075Z,17.52
2022-11-05T09:03:01.257Z,17.59
2022-11-05T09:05:29.464Z,17.66
2022-11-05T09:08:00.885Z,17.72
2022-11-05T09:10:28.870Z,17.79
2022-11-05T09:12:56.064Z,17.86
2022-11-05T09:15:23.674Z,17.92
2022-11-05T09:17:51.165Z,17.99
2022-11-05T09:20:18.112Z,18.07
2022-11-05T09:22:46.455Z,18.16
2022-11-05T09:25:15.471Z,18.23
2022-11-05T09:27:43.268Z,18.21
2022-11-05T09:30:11.809Z,18.24
2022-11-05T09:32:39.002Z,18.27
2022-11-05T09:35:06.349Z,18.29
2022-11-05T09:37:33.450Z,18.27
2022-11-05T09:40:00.572Z,18.21
2022-11-05T09:42:38.103Z,18.15
2022-11-05T09:45:27.532Z,18.10
2022-11-05T09:48:03.456Z,18.14
2022-11-05T09:50:38.339Z,18.28
2022-11-05T09:53:05.570Z,18.38
2022-11-05T09:55:43.934Z,18.32
2022-11-05T09:58:18.994Z,18.38
2022-11-05T10:00:49.032Z,18.47
2022-11-05T10:03:20.580Z,18.58
2022-11-05T10:05:50.170Z,18.70
2022-11-05T10:08:27.406Z,18.87
2022-11-05T10:10:56.345Z,18.96
2022-11-05T10:13:46.272Z,18.99
2022-11-05T10:16:31.207Z,19.06
2022-11-05T10:19:25.807Z,19.08
2022-11-05T10:22:09.966Z,18.99
2022-11-05T10:24:38.201Z,18.84
2022-11-05T10:27:05.980Z,18.83
2022-11-05T10:29:35.287Z,18.83
2022-11-05T10:32:05.938Z,18.82
2022-11-05T10:34:37.108Z,18.81
2022-11-05T10:37:04.586Z,18.77
2022-11-05T10:39:34.028Z,18.81
2022-11-05T10:42:40.213Z,18.87
2022-11-05T10:45:34.040Z,18.89
2022-11-05T10:48:43.888Z,18.97
2022-11-05T10:51:12.099Z,19.08
2022-11-05T10:53:40.090Z,19.18
2022-11-05T10:56:28.633Z,19.28
2022-11-05T10:58:58.348Z,19.40
2022-11-05T11:01:26.568Z,19.42
2022-11-05T11:04:17.439Z,19.42
2022-11-05T11:06:49.860Z,19.50
2022-11-05T11:09:22.738Z,19.60
2022-11-05T11:12:06.614Z,19.66
2022-11-05T11:14:35.346Z,19.74
2022-11-05T11:17:38.319Z,19.77
2022-11-05T11:20:31.776Z,19.78
2022-11-05T11:23:14.375Z,19.73
2022-11-05T11:26:08.504Z,19.68
2022-11-05T11:28:39.908Z,19.73
2022-11-05T11:31:14.293Z,19.79
2022-11-05T11:33:44.890Z,19.82
2022-11-05T11:36:13.288Z,19.87
2022-11-05T11:38:41.006Z,19.92
2022-11-05T11:41:31.537Z,19.92
2022-11-05T11:44:16.479Z,19.92
2022-11-05T11:46:48.700Z,19.86
2022-11-05T11:50:00.221Z,19.85
2022-11-05T11:52:36.457Z,19.86
2022-11-05T11:55:32.455Z,19.84
2022-11-05T11:58:07.760Z,19.81
2022-11-05T12:00:42.782Z,19.83
2022-11-05T12:03:32.067Z,19.84
2022-11-05T12:06:15.844Z,19.80
2022-11-05T12:09:06.715Z,19.76
2022-11-05T12:11:46.465Z,19.71
2022-11-05T12:14:52.724Z,19.70
2022-11-05T12:18:15.004Z,19.68
2022-11-05T12:21:07.237Z,19.64
2022-11-05T12:24:08.567Z,19.70
2022-11-05T12:27:05.704Z,19.79
2022-11-05T12:30:03.290Z,19.84
2022-11-05T12:32:44.344Z,19.84
2022-11-05T12:35:57.553Z,19.79
2022-11-05T12:39:03.340Z,19.71
2022-11-05T12:41:40.191Z,19.64
2022-11-05T12:47:57.615Z,19.68
2022-11-05T12:50:47.334Z,19.63
2022-11-05T12:53:42.645Z,19.58
2022-11-05T12:59:24.875Z,19.51
2022-11-05T13:02:00.632Z,19.51
2022-11-05T13:04:51.605Z,19.47
2022-11-05T13:07:24.114Z,19.41
2022-11-05T13:10:07.738Z,19.37
2022-11-05T13:12:39.355Z,19.29
2022-11-05T13:15:34.046Z,19.27
2022-11-05T13:18:11.705Z,19.30
2022-11-05T13:20:42.457Z,19.31
2022-11-05T13:23:31.456Z,19.25
2022-11-05T13:26:05.869Z,19.14
2022-11-05T13:29:14.682Z,19.09
2022-11-05T13:31:47.490Z,19.05
2022-11-05T13:34:14.524Z,18.99
2022-11-05T13:37:16.927Z,18.96
2022-11-05T13:39:57.406Z,18.95
2022-11-05T13:43:07.732Z,18.88
2022-11-05T13:46:30.144Z,18.86
2022-11-05T13:49:52.070Z,18.83
2022-11-05T13:53:15.080Z,18.83
2022-11-05T13:56:24.786Z,18.84
2022-11-05T14:02:26.660Z,18.94
2022-11-05T14:05:00.950Z,18.96
2022-11-05T14:07:32.076Z,18.96
2022-11-05T14:10:14.897Z,18.95
2022-11-05T14:12:48.336Z,19.02
2022-11-05T14:15:23.277Z,18.99
2022-11-05T14:18:18.651Z,18.99
2022-11-05T14:21:00.376Z,19.06
2022-11-05T14:23:37.572Z,19.02
2022-11-05T14:26:31.783Z,19.15
2022-11-05T14:29:25.016Z,19.49
2022-11-05T14:32:13.335Z,19.56
2022-11-05T14:35:35.995Z,19.44
2022-11-05T14:38:05.188Z,19.28
2022-11-05T14:40:42.421Z,19.09
2022-11-05T14:43:22.861Z,18.79
2022-11-05T14:46:00.998Z,18.54
2022-11-05T14:48:38.303Z,18.34
2022-11-05T14:51:44.274Z,18.16
2022-11-05T14:54:42.918Z,17.99
2022-11-05T14:57:14.676Z,17.88
2022-11-05T15:00:01.319Z,17.81
2022-11-05T15:02:35.473Z,17.70
2022-11-05T15:05:37.121Z,17.59
2022-11-05T15:08:44.535Z,17.53
2022-11-05T15:11:20.618Z,17.48
2022-11-05T15:14:17.501Z,17.36
2022-11-05T15:16:49.684Z,17.26
2022-11-05T15:19:21.936Z,17.17
2022-11-05T15:21:50.911Z,17.09
2022-11-05T15:24:28.790Z,17.08
2022-11-05T15:27:22.971Z,17.00
2022-11-05T15:29:50.215Z,16.91
2022-11-05T15:32:19.488Z,16.88
2022-11-05T15:34:55.279Z,16.85
2022-11-05T15:37:26.130Z,16.80
2022-11-05T15:39:55.920Z,16.74
2022-11-05T15:42:28.791Z,16.69
2022-11-05T15:44:58.018Z,16.62
2022-11-05T15:47:30.272Z,16.51
2022-11-05T15:50:23.196Z,16.37
2022-11-05T15:52:52.426Z,16.34
2022-11-05T15:55:25.213Z,16.34
2022-11-05T15:58:07.134Z,16.39
2022-11-05T16:00:36.736Z,16.38
2022-11-05T16:03:39.179Z,16.27
2022-11-05T16:06:09.653Z,16.21
2022-11-05T16:08:36.788Z,16.17
2022-11-05T16:11:04.363Z,16.05
2022-11-05T16:13:42.098Z,15.93
2022-11-05T16:16:35.517Z,15.91
2022-11-05T16:19:22.352Z,15.90
2022-11-05T16:21:55.702Z,15.94
2022-11-05T16:24:29.076Z,15.96
2022-11-05T16:27:03.019Z,15.96
2022-11-05T16:29:36.625Z,15.97
2022-11-05T16:32:14.738Z,15.98
2022-11-05T16:34:46.655Z,16.00
2022-11-05T16:37:17.964Z,16.01
2022-11-05T16:39:45.529Z,16.00
2022-11-05T16:42:48.473Z,15.98
2022-11-05T16:45:16.931Z,15.95
2022-11-05T16:47:44.862Z,15.90
2022-11-05T16:50:41.104Z,15.91
2022-11-05T16:53:08.218Z,15.91
2022-11-05T16:55:37.889Z,15.93
2022-11-05T16:58:05.215Z,15.93
2022-11-05T17:00:32.405Z,15.95
2022-11-05T17:02:59.450Z,15.91
2022-11-05T17:05:29.499Z,15.83
2022-11-05T17:07:57.422Z,15.71
2022-11-05T17:10:26.000Z,15.59
2022-11-05T17:12:53.682Z,15.44
2022-11-05T17:15:25.069Z,15.34
2022-11-05T17:17:53.540Z,15.30
2022-11-05T17:20:51.776Z,15.23
2022-11-05T17:23:20.945Z,15.23
2022-11-05T17:25:51.168Z,15.28
2022-11-05T17:28:19.015Z,15.28
2022-11-05T17:30:52.233Z,15.23
2022-11-05T17:33:20.867Z,15.11
2022-11-05T17:35:48.426Z,15.01
2022-11-05T17:38:15.513Z,14.92
2022-11-05T17:40:42.459Z,14.85
2022-11-05T17:43:10.239Z,14.73
2022-11-05T17:45:46.143Z,14.60
2022-11-05T17:48:14.218Z,14.51
2022-11-05T17:50:51.720Z,14.40
2022-11-05T17:53:19.614Z,14.35
2022-11-05T17:55:47.634Z,14.32
2022-11-05T17:58:14.768Z,14.25
2022-11-05T18:00:42.932Z,14.24
2022-11-05T18:03:11.156Z,14.46
2022-11-05T18:05:40.172Z,14.32
2022-11-05T18:08:07.882Z,14.11
2022-11-05T18:10:39.003Z,14.06
2022-11-05T18:13:06.121Z,14.01
2022-11-05T18:15:33.421Z,14.05
2022-11-05T18:18:00.380Z,14.04
2022-11-05T18:20:27.592Z,13.93
2022-11-05T18:22:54.633Z,13.83
2022-11-05T18:25:21.908Z,13.77
2022-11-05T18:27:48.902Z,13.71
2022-11-05T18:30:16.102Z,13.71
2022-11-05T18:32:44.966Z,13.70
2022-11-05T18:35:13.554Z,13.64
2022-11-05T18:37:40.907Z,13.59
2022-11-05T18:40:08.803Z,13.52
2022-11-05T18:42:36.000Z,13.50
2022-11-05T18:45:04.409Z,13.46
2022-11-05T18:47:32.704Z,13.45
2022-11-05T18:50:00.535Z,13.44
2022-11-05T18:52:28.846Z,13.42
2022-11-05T18:54:55.967Z,13.42
2022-11-05T18:57:23.150Z,13.40
2022-11-05T18:59:50.200Z,13.34
2022-11-05T19:02:17.490Z,13.30
2022-11-05T19:05:00.700Z,13.22
2022-11-05T19:07:32.529Z,13.17
2022-11-05T19:09:59.668Z,13.17
2022-11-05T19:12:26.661Z,13.21
2022-11-05T19:14:57.959Z,13.24
2022-11-05T19:17:28.071Z,13.28
2022-11-05T19:19:55.685Z,13.32
2022-11-05T19:22:22.794Z,13.27
2022-11-05T19:24:49.826Z,13.26
2022-11-05T19:27:17.079Z,13.24
2022-11-05T19:29:44.029Z,13.25
2022-11-05T19:32:11.217Z,13.25
2022-11-05T19:34:38.181Z,13.27
2022-11-05T19:37:08.198Z,13.23
2022-11-05T19:39:35.994Z,13.23
2022-11-05T19:42:03.779Z,13.20
2022-11-05T19:44:31.314Z,13.29
2022-11-05T19:46:58.577Z,13.20
2022-11-05T19:49:28.250Z,13.32
2022-11-05T19:51:55.902Z,13.28
2022-11-05T19:54:23.051Z,13.18
2022-11-05T19:56:52.034Z,13.20
2022-11-05T19:59:19.565Z,13.10
2022-11-05T20:01:46.881Z,13.14
2022-11-05T20:04:14.203Z,13.08
2022-11-05T20:06:41.318Z,13.02
2022-11-05T20:09:27.459Z,12.97
2022-11-05T20:11:56.632Z,13.07
2022-11-05T20:14:25.266Z,13.09
2022-11-05T20:16:53.235Z,13.05
2022-11-05T20:19:22.264Z,13.12
2022-11-05T20:21:49.395Z,13.06
2022-11-05T20:24:24.311Z,13.05
2022-11-05T20:26:54.075Z,13.04
2022-11-05T20:29:22.268Z,13.01
2022-11-05T20:31:50.296Z,12.99
2022-11-05T20:34:17.369Z,12.93
2022-11-05T20:36:44.475Z,12.92
2022-11-05T20:39:12.209Z,12.92
2022-11-05T20:41:39.343Z,12.90
2022-11-05T20:44:06.443Z,12.87
2022-11-05T20:46:33.479Z,12.83
2022-11-05T20:49:00.488Z,12.80
2022-11-05T20:51:27.478Z,12.83
2022-11-05T20:53:59.962Z,12.90
2022-11-05T20:56:37.368Z,12.91
2022-11-05T20:59:05.690Z,12.92
2022-11-05T21:01:34.064Z,12.83
2022-11-05T21:04:01.982Z,12.72
2022-11-05T21:06:29.096Z,12.72
2022-11-05T21:08:56.515Z,12.70
2022-11-05T21:11:24.108Z,12.73
2022-11-05T21:13:51.131Z,12.71
2022-11-05T21:16:19.746Z,12.70
2022-11-05T21:18:47.689Z,12.65
2022-11-05T21:21:17.998Z,12.52
2022-11-05T21:23:45.041Z,12.49
2022-11-05T21:26:14.894Z,12.55
2022-11-05T21:28:41.944Z,12.46
2022-11-05T21:31:09.570Z,12.47
2022-11-05T21:33:36.974Z,12.43
2022-11-05T21:36:09.132Z,12.42
2022-11-05T21:38:36.414Z,12.43
2022-11-05T21:41:04.759Z,12.46
2022-11-05T21:43:32.035Z,12.51
2022-11-05T21:46:04.507Z,12.47
2022-11-05T21:48:32.387Z,12.42
2022-11-05T21:51:17.947Z,12.44
2022-11-05T21:54:03.379Z,12.60
2022-11-05T21:56:50.017Z,12.45
2022-11-05T21:59:38.582Z,12.37
2022-11-05T22:02:07.752Z,12.36
2022-11-05T22:04:37.579Z,12.40
2022-11-05T22:07:05.723Z,12.43
2022-11-05T22:09:33.002Z,12.43
2022-11-05T22:12:01.195Z,12.42
2022-11-05T22:14:28.363Z,12.47
2022-11-05T22:16:55.600Z,12.51
2022-11-05T22:19:23.536Z,12.52
2022-11-05T22:21:50.781Z,12.50
2022-11-05T22:24:18.357Z,12.53
2022-11-05T22:26:45.955Z,12.57
2022-11-05T22:29:13.380Z,12.55
2022-11-05T22:31:40.587Z,12.41
2022-11-05T22:34:09.756Z,12.36
2022-11-05T22:36:36.740Z,12.37
2022-11-05T22:39:05.339Z,12.42
2022-11-05T22:41:32.487Z,12.48
2022-11-05T22:43:59.486Z,12.55
2022-11-05T22:46:27.597Z,12.56
2022-11-05T22:48:56.366Z,12.57
2022-11-05T22:51:29.923Z,12.50
2022-11-05T22:53:57.935Z,12.46
2022-11-05T22:56:27.779Z,12.49
2022-11-05T22:58:55.199Z,12.49
2022-11-05T23:01:23.436Z,12.42
2022-11-05T23:03:52.775Z,12.40
2022-11-05T23:06:49.667Z,12.37
2022-11-05T23:09:37.864Z,12.34
2022-11-05T23:12:09.074Z,12.36
2022-11-05T23:14:36.896Z,12.33
2022-11-05T23:17:22.723Z,12.30
2022-11-05T23:20:08.311Z,12.30
2022-11-05T23:22:53.706Z,12.36
2022-11-05T23:25:23.316Z,12.24
2022-11-05T23:27:52.065Z,12.31
2022-11-05T23:30:24.934Z,12.31
2022-11-05T23:32:53.264Z,12.31
2022-11-05T23:35:43.238Z,12.36
2022-11-05T23:38:29.075Z,12.37
2022-11-05T23:41:21.771Z,12.50
2022-11-05T23:44:07.244Z,12.59
2022-11-05T23:46:52.913Z,12.49
2022-11-05T23:49:20.172Z,12.43
2022-11-05T23:51:47.231Z,12.32
2022-11-05T23:54:14.138Z,12.28
2022-11-05T23:56:41.127Z,12.26
2022-11-05T23:59:08.304Z,12.29
